Latest Weather Observations for White Cliffs AWS

IDN60801

Issued at 7:35 pm EST Wednesday 23 April 2014 (issued every 30 minutes, with the page automatically refreshed every 10 minutes)

About weather observations | Map of weather stations | Latest weather observations for NSW | Other Formats
Station Details ID: 046129 Name: WHITE CLIFFS AWS Lat: -30.85 Lon: 143.07 Height: 158.0 m
Data from the previous 72 hours. | See also: Recent months at White Cliffs AWS
Date/Time
EST
Temp
°C
App
Temp
°C
Dew
Point
Rel
Hum
%
Delta-T
°C
Wind Press
QNH
hPa
Press
MSL
hPa
Rain
since 9 am
mm
Dir
 
Spd
km/h
Gust
km/h
Spd
kts
Gust
kts
23/07:30pm 24.4 22.9 3.1 25 10.4 NNW 0 0 0 0 1013.5 - 0.0
23/07:00pm 25.0 23.6 3.6 25 10.6 NNW 0 0 0 0 1013.4 1012.9 0.0
23/06:30pm 26.3 24.9 3.5 23 11.4 CALM 0 0 0 0 1013.2 - 0.0
23/06:00pm 27.8 25.3 3.5 21 12.2 NNW 6 7 3 4 1013.0 1012.5 0.0
23/05:30pm 29.1 25.8 2.4 18 13.3 NNW 9 13 5 7 1012.9 - 0.0
23/05:00pm 29.8 25.7 2.1 17 13.8 NNW 13 19 7 10 1012.9 1012.4 0.0
23/04:30pm 30.2 26.4 1.6 16 14.2 NW 11 20 6 11 1013.0 - 0.0
23/04:00pm 29.9 24.9 1.4 16 14.0 NNW 17 20 9 11 1013.2 1012.7 0.0
23/03:30pm 30.1 26.0 2.4 17 13.9 NW 13 19 7 10 1013.3 - 0.0
23/03:00pm 30.3 26.8 3.4 18 13.7 NNW 11 20 6 11 1013.4 1012.9 0.0
23/02:30pm 30.4 26.9 3.4 18 13.8 NNW 11 22 6 12 1013.5 - 0.0
23/02:00pm 29.5 24.9 3.5 19 13.2 N 17 24 9 13 1013.9 1013.4 0.0
23/01:30pm 29.4 25.9 3.4 19 13.2 NNW 11 22 6 12 1014.1 - 0.0
23/01:00pm 28.4 24.1 3.3 20 12.6 N 15 24 8 13 1014.6 1014.1 0.0
23/12:30pm 28.4 24.2 4.0 21 12.4 N 15 24 8 13 1015.1 - 0.0
23/12:00pm 27.7 23.8 3.4 21 12.2 N 13 20 7 11 1015.6 1015.2 0.0
23/11:30am 26.7 24.0 5.6 26 11.0 NNW 9 15 5 8 1016.1 - 0.0
23/11:00am 25.1 23.2 6.8 31 9.6 N 6 11 3 6 1016.6 1016.1 0.0
23/10:30am 24.1 22.2 7.7 35 8.7 ENE 7 9 4 5 1016.8 - 0.0
23/10:00am 23.4 21.8 7.9 37 8.2 E 6 11 3 6 1016.9 1016.4 0.0
23/09:30am 21.4 19.9 10.6 50 5.9 S 9 11 5 6 1017.0 - 0.0
23/09:00am 20.5 18.4 11.2 55 5.1 S 13 15 7 8 1017.0 1016.5 0.0
23/08:30am 18.7 16.2 11.0 61 4.2 S 15 19 8 10 1016.8 - 0.0
23/08:00am 17.5 14.6 10.9 65 3.6 S 17 22 9 12 1016.6 1016.1 0.0
23/07:30am 16.8 13.4 9.2 61 4.0 S 17 24 9 13 1016.1 - 0.0
23/07:00am 15.7 12.2 5.6 51 4.9 S 13 20 7 11 1015.7 1015.3 0.0
23/06:30am 14.8 12.1 5.6 54 4.4 N 9 11 5 6 1015.4 - 0.0
23/06:00am 14.8 12.5 5.6 54 4.4 N 7 11 4 6 1015.2 1014.8 0.0
23/05:30am 15.1 12.5 5.9 54 4.4 N 9 11 5 6 1015.4 - 0.0
23/05:00am 14.9 11.9 6.0 55 4.3 NW 11 11 6 6 1015.3 1014.9 0.0
23/04:30am 14.8 12.2 5.9 55 4.3 NNW 9 11 5 6 1015.3 - 0.0
23/04:00am 15.3 12.6 5.8 53 4.6 NNW 9 11 5 6 1015.2 1014.8 0.0
23/03:30am 15.1 12.1 6.1 55 4.4 NNW 11 11 6 6 1015.2 - 0.0
23/03:00am 15.5 12.5 6.0 53 4.6 N 11 13 6 7 1015.3 1014.9 0.0
23/02:30am 17.2 14.2 5.8 47 5.6 N 11 13 6 7 1015.3 - 0.0
23/02:00am 18.0 15.2 5.2 43 6.2 N 9 11 5 6 1015.7 1015.3 0.0
23/01:30am 17.3 14.5 5.3 45 5.8 N 9 13 5 7 1016.0 - 0.0
23/01:00am 18.4 14.9 5.3 42 6.4 NNE 13 15 7 8 1016.0 1015.6 0.0
23/12:30am 19.1 15.5 5.2 40 6.8 NNE 13 15 7 8 1016.2 - 0.0
23/12:00am 19.4 15.4 5.1 39 7.0 NNE 15 15 8 8 1016.2 1015.8 0.0
 
Date/Time
EST
Temp
°C
App
Temp
°C
Dew
Point
Rel
Hum
%
Delta-T
°C
Wind Press
QNH
hPa
Press
MSL
hPa
Rain
since 9 am
mm
Dir
 
Spd
km/h
Gust
km/h
Spd
kts
Gust
kts
22/11:30pm 20.5 16.2 5.3 37 7.5 NNE 17 20 9 11 1016.5 - 0.0
22/11:00pm 20.5 15.9 5.7 38 7.4 NE 19 20 10 11 1016.5 1016.0 0.0
22/10:30pm 20.2 17.5 5.4 38 7.3 NE 9 13 5 7 1016.8 - 0.0
22/10:00pm 21.1 18.8 5.9 37 7.6 ENE 7 9 4 5 1016.8 1016.3 0.0
22/09:30pm 21.1 18.5 5.9 37 7.7 E 9 9 5 5 1016.8 - 0.0
22/09:00pm 21.5 19.2 5.8 36 7.9 NE 7 9 4 5 1016.7 1016.2 0.0
22/08:30pm 21.5 18.8 5.8 36 7.9 NE 9 13 5 7 1016.5 - 0.0
22/08:00pm 21.9 18.9 5.8 35 8.1 N 11 13 6 7 1016.3 1015.9 0.0
22/07:30pm 22.8 19.8 6.1 34 8.5 N 11 13 6 7 1016.1 - 0.0
22/07:00pm 22.7 19.7 6.0 34 8.5 N 11 13 6 7 1015.8 1015.4 0.0
22/06:30pm 23.6 20.6 6.0 32 9.0 NNE 11 11 6 6 1015.6 - 0.0
22/06:00pm 25.5 22.8 5.7 28 10.2 N 9 13 5 7 1015.3 1014.9 0.0
22/05:30pm 27.5 25.2 5.7 25 11.4 N 7 11 4 6 1015.2 - 0.0
22/05:00pm 28.0 25.2 5.0 23 11.9 NW 9 15 5 8 1015.3 1014.9 0.0
22/04:30pm 28.2 27.1 5.1 23 12.0 CALM 0 7 0 4 1015.2 - 0.0
22/04:00pm 28.5 26.7 5.4 23 12.1 NNW 4 11 2 6 1015.4 1015.0 0.0
22/03:30pm 28.8 26.3 5.0 22 12.4 W 7 17 4 9 1015.4 - 0.0
22/03:00pm 28.6 25.9 5.5 23 12.1 NW 9 17 5 9 1015.4 1015.0 0.0
22/02:30pm 28.0 23.6 5.0 23 11.9 NW 17 26 9 14 1015.4 - 0.0
22/02:00pm 28.1 25.0 5.6 24 11.8 NW 11 19 6 10 1015.6 1015.2 0.0
22/01:30pm 27.4 23.4 5.1 24 11.5 NW 15 26 8 14 1015.9 - 0.0
22/01:00pm 27.3 23.3 5.0 24 11.5 NNW 15 26 8 14 1016.5 1016.0 0.0
22/12:30pm 26.6 21.9 5.0 25 11.1 NNW 19 30 10 16 1017.0 - 0.0
22/12:00pm 26.4 21.3 4.2 24 11.2 NNW 20 30 11 16 1017.4 1016.9 0.0
22/11:30am 25.7 20.6 4.2 25 10.8 N 20 28 11 15 1017.9 - 0.0
22/11:00am 24.8 19.2 3.5 25 10.5 N 22 30 12 16 1018.2 1017.7 0.0
22/10:30am 24.4 18.8 3.7 26 10.2 N 22 30 12 16 1018.4 - 0.0
22/10:00am 23.0 17.0 3.5 28 9.5 N 24 30 13 16 1018.5 1018.0 0.0
22/09:30am 22.2 16.7 3.8 30 9.0 N 22 26 12 14 1018.6 - 0.0
22/09:00am 20.4 15.4 3.6 33 8.0 N 19 24 10 13 1018.6 1018.1 0.0
22/08:30am 17.8 14.8 6.0 46 5.8 NNW 11 13 6 7 1018.5 - 0.0
22/08:00am 16.6 13.5 5.6 48 5.3 NNW 11 13 6 7 1018.2 1017.7 0.0
22/07:30am 13.8 10.8 5.9 59 3.8 NW 11 13 6 7 1018.1 - 0.0
22/07:00am 13.2 9.7 5.6 60 3.6 NNW 13 15 7 8 1017.6 1017.1 0.0
22/06:30am 15.1 11.5 5.0 51 4.8 N 13 17 7 9 1017.1 - 0.0
22/06:00am 15.6 11.7 5.5 51 4.9 N 15 19 8 10 1016.8 1016.3 0.0
22/05:30am 13.5 10.1 5.9 60 3.6 NNW 13 13 7 7 1016.9 - 0.0
22/05:00am 14.2 11.9 5.8 57 4.0 NNW 7 9 4 5 1016.8 1016.3 0.0
22/04:30am 14.6 11.9 5.7 55 4.3 NNW 9 11 5 6 1016.6 - 0.0
22/04:00am 15.6 13.3 4.9 49 5.1 N 6 7 3 4 1016.6 1016.1 0.0
22/03:30am 16.8 14.6 5.1 46 5.6 N 6 7 3 4 1016.6 - 0.0
22/03:00am 16.7 14.2 5.0 46 5.6 NE 7 9 4 5 1016.8 1016.3 0.0
22/02:30am 17.2 14.8 5.2 45 5.8 NNE 7 9 4 5 1017.0 - 0.0
22/02:00am 16.8 14.4 5.1 46 5.6 NNE 7 9 4 5 1017.3 1016.8 0.0
22/01:30am 17.3 14.2 5.6 46 5.7 NNE 11 11 6 6 1017.4 - 0.0
22/01:00am 17.7 15.0 5.6 45 5.9 NNE 9 11 5 6 1017.5 1017.0 0.0
22/12:30am 17.8 14.7 5.7 45 5.9 NE 11 13 6 7 1017.6 - 0.0
22/12:00am 17.7 14.4 6.3 47 5.6 NE 13 15 7 8 1017.7 1017.2 0.0
 
Date/Time
EST
Temp
°C
App
Temp
°C
Dew
Point
Rel
Hum
%
Delta-T
°C
Wind Press
QNH
hPa
Press
MSL
hPa
Rain
since 9 am
mm
Dir
 
Spd
km/h
Gust
km/h
Spd
kts
Gust
kts
21/11:30pm 17.9 15.3 6.1 46 5.8 NE 9 11 5 6 1017.9 - 0.0
21/11:00pm 18.3 15.7 6.2 45 6.0 ENE 9 9 5 5 1018.0 1017.5 0.0
21/10:30pm 18.1 15.5 6.3 46 5.9 NE 9 11 5 6 1018.0 - 0.0
21/10:00pm 18.7 16.5 6.2 44 6.2 ENE 7 9 4 5 1018.2 1017.7 0.0
21/09:30pm 19.1 16.5 6.2 43 6.5 ENE 9 9 5 5 1018.4 - 0.0
21/09:00pm 19.2 16.7 6.7 44 6.3 E 9 9 5 5 1018.4 1017.9 0.0
21/08:30pm 19.3 16.5 7.1 45 6.2 E 11 11 6 6 1018.3 - 0.0
21/08:00pm 19.7 17.3 7.1 44 6.4 E 9 11 5 6 1018.2 1017.7 0.0
21/07:30pm 21.0 18.5 6.5 39 7.4 E 9 11 5 6 1018.0 - 0.0
21/07:00pm 21.6 19.4 6.3 37 7.8 ENE 7 9 4 5 1017.8 1017.3 0.0
21/06:30pm 22.8 21.9 6.1 34 8.5 CALM 0 0 0 0 1017.4 - 0.0
21/06:00pm 23.8 22.8 5.7 31 9.2 CALM 0 0 0 0 1017.3 1016.8 0.0
21/05:30pm 24.5 22.3 5.3 29 9.8 E 6 7 3 4 1017.0 - 0.0
21/05:00pm 25.3 23.5 5.5 28 10.2 SE 4 9 2 5 1017.0 1016.5 0.0
21/04:30pm 25.3 23.4 5.0 27 10.3 N 4 13 2 7 1017.2 - 0.0
21/04:00pm 26.1 24.2 5.1 26 10.7 W 4 9 2 5 1017.4 1016.9 0.0
21/03:30pm 25.7 22.9 5.3 27 10.5 NNW 9 13 5 7 1017.3 - 0.0
21/03:00pm 25.8 23.1 5.4 27 10.5 NW 9 13 5 7 1017.5 1017.0 0.0
21/02:30pm 25.6 22.9 5.8 28 10.2 N 9 13 5 7 1017.8 - 0.0
21/02:00pm 25.3 22.6 5.5 28 10.2 ENE 9 15 5 8 1017.8 1017.3 0.0
21/01:30pm 24.8 22.1 5.6 29 9.9 WNW 9 15 5 8 1018.2 - 0.0
21/01:00pm 25.5 23.0 6.7 30 9.9 E 9 19 5 10 1018.5 1018.0 0.0
21/12:30pm 24.7 21.7 6.0 30 9.7 N 11 20 6 11 1019.1 - 0.0
21/12:00pm 23.8 21.0 5.2 30 9.4 N 9 17 5 9 1019.7 1019.2 0.0
21/11:30am 23.6 20.8 5.0 30 9.4 N 9 19 5 10 1020.1 - 0.0
21/11:00am 22.8 19.2 4.8 31 9.0 NNE 13 19 7 10 1020.4 1020.0 0.0
21/10:30am 22.6 18.5 4.6 31 8.9 NNE 15 20 8 11 1020.7 - 0.0
21/10:00am 21.9 17.8 4.5 32 8.6 NNE 15 20 8 11 1020.8 1020.4 0.0
21/09:30am 20.6 16.1 4.2 34 8.0 NNE 17 20 9 11 1021.0 - 0.0
21/09:00am 18.6 15.9 5.5 42 6.4 NNE 9 13 5 7 1021.2 1020.8 0.0
21/08:30am 17.1 14.9 6.0 48 5.5 E 7 9 4 5 1020.9 - 0.0
21/08:00am 15.3 13.1 6.3 55 4.4 E 7 9 4 5 1020.7 1020.3 0.0
21/07:30am 13.8 10.8 6.2 60 3.7 ESE 11 11 6 6 1020.5 - 0.0
21/07:00am 13.1 10.4 5.5 60 3.6 ESE 9 11 5 6 1020.2 1019.7 0.0
21/06:30am 13.3 10.6 5.5 59 3.7 ESE 9 11 5 6 1019.9 - 0.0
21/06:00am 13.3 10.6 5.7 60 3.6 ESE 9 11 5 6 1019.6 1019.1 0.0
21/05:30am 13.4 10.7 5.8 60 3.6 ESE 9 9 5 5 1019.4 - 0.0
21/05:00am 13.1 10.9 6.0 62 3.4 ESE 7 7 4 4 1019.1 1018.6 0.0
21/04:30am 12.9 10.3 6.0 63 3.3 ESE 9 11 5 6 1018.9 - 0.0
21/04:00am 13.8 11.1 5.7 58 3.8 ESE 9 9 5 5 1018.8 1018.3 0.0
21/03:30am 14.3 11.7 6.2 58 3.9 ESE 9 9 5 5 1018.7 - 0.0
21/03:00am 13.7 11.1 6.1 60 3.6 E 9 11 5 6 1018.6 1018.1 0.0
21/02:30am 13.9 11.7 6.3 60 3.7 E 7 9 4 5 1018.6 - 0.0
21/02:00am 14.0 11.5 6.4 60 3.7 E 9 9 5 5 1018.9 1018.4 0.0
21/01:30am 14.4 11.5 6.5 59 3.8 E 11 13 6 7 1018.9 - 0.0
21/01:00am 15.1 11.7 6.1 55 4.4 E 13 15 7 8 1018.8 1018.3 0.0
21/12:30am 15.7 12.1 6.7 55 4.4 E 15 17 8 9 1018.8 - 0.0
21/12:00am 15.4 12.2 6.7 56 4.3 E 13 13 7 7 1018.8 1018.3 0.0
 
Date/Time
EST
Temp
°C
App
Temp
°C
Dew
Point
Rel
Hum
%
Delta-T
°C
Wind Press
QNH
hPa
Press
MSL
hPa
Rain
since 9 am
mm
Dir
 
Spd
km/h
Gust
km/h
Spd
kts
Gust
kts
20/11:30pm 15.8 13.0 7.0 56 4.4 E 11 13 6 7 1018.9 - 0.0
20/11:00pm 16.0 12.8 7.0 55 4.5 E 13 15 7 8 1019.0 1018.5 0.0
20/10:30pm 16.5 13.3 6.9 53 4.8 E 13 13 7 7 1019.1 - 0.0
20/10:00pm 16.2 13.5 7.2 55 4.5 ENE 11 11 6 6 1019.2 1018.7 0.0
20/09:30pm 16.9 14.6 7.5 54 4.8 E 9 11 5 6 1019.1 - 0.0
20/09:00pm 17.3 14.7 7.6 53 4.9 E 11 13 6 7 1018.9 1018.4 0.0
20/08:30pm 17.3 15.1 7.9 54 4.8 E 9 13 5 7 1018.7 - 0.0
20/08:00pm 18.8 16.2 7.9 49 5.6 ESE 11 13 6 7 1018.4 1017.9 0.0

Other Formats:

Comma delimited format used in spreadsheet applications
http://www.bom.gov.au/fwo/IDN60801/IDN60801.95699.axf

JavaScript Object Notation format (JSON) in row-major order
http://www.bom.gov.au/fwo/IDN60801/IDN60801.95699.json